Miccosukee, Florida
Current Conditions -  °F | °C
As of 8:53 PM on Sunday 21 Dec 2014 (Local Time) from KTLH Reporting Station
Overcast Overcast  
Wind Chill: 14°   Ceiling: 700
Heat Index: 14°   Visibility: 10mi
Dew Point: 12°   Wind: 5mph
Humidity: 87%   Direction: 80°E
Pressure: 30.04"   Gusts: NA
Location:  30.59°N, 84.04°W
Report Text: KTLH 220053Z 08004KT 10SM OVC007 14/12 A3004 RMK AO2 RAE43 SLP171 P0002 T01440122 $
Loading
Personal Weather Stations






























Interactive Weather Map New forecast layout! Learn more

10-Day Weather Forecast

Advertisements
Track Severe Weather on mobile